sensor_id;sensor_type;location;lat;lon;timestamp;pressure;altitude;pressure_sealevel;temperature;humidity
22031;BME280;11179;52.106;21.024;2023-02-28T00:00:23;101966.69;;;-3.80;55.06
22031;BME280;11179;52.106;21.024;2023-02-28T00:02:49;101959.00;;;-3.84;55.17
22031;BME280;11179;52.106;21.024;2023-02-28T00:05:17;101970.88;;;-3.87;55.33
22031;BME280;11179;52.106;21.024;2023-02-28T00:07:42;101967.44;;;-3.89;55.63
22031;BME280;11179;52.106;21.024;2023-02-28T00:10:10;101967.69;;;-3.92;55.86
22031;BME280;11179;52.106;21.024;2023-02-28T00:12:37;101976.72;;;-3.93;55.93
22031;BME280;11179;52.106;21.024;2023-02-28T00:15:05;101978.78;;;-3.96;56.02
22031;BME280;11179;52.106;21.024;2023-02-28T00:17:31;101982.56;;;-3.99;56.21
22031;BME280;11179;52.106;21.024;2023-02-28T00:19:56;101975.88;;;-4.04;56.23
22031;BME280;11179;52.106;21.024;2023-02-28T00:22:22;101976.13;;;-4.07;56.25
22031;BME280;11179;52.106;21.024;2023-02-28T00:24:47;101967.25;;;-4.19;56.43
22031;BME280;11179;52.106;21.024;2023-02-28T00:27:13;101987.50;;;-4.15;56.43
22031;BME280;11179;52.106;21.024;2023-02-28T00:29:39;101982.38;;;-4.18;56.54
22031;BME280;11179;52.106;21.024;2023-02-28T00:32:05;101978.47;;;-4.25;56.60
22031;BME280;11179;52.106;21.024;2023-02-28T00:34:31;101984.09;;;-4.28;56.67
22031;BME280;11179;52.106;21.024;2023-02-28T00:36:57;101988.84;;;-4.32;56.89
22031;BME280;11179;52.106;21.024;2023-02-28T00:39:22;101984.56;;;-4.34;57.03
22031;BME280;11179;52.106;21.024;2023-02-28T00:41:48;101979.44;;;-4.37;57.04
22031;BME280;11179;52.106;21.024;2023-02-28T00:44:13;101984.34;;;-4.42;57.00
22031;BME280;11179;52.106;21.024;2023-02-28T00:46:38;101987.25;;;-4.45;57.13
22031;BME280;11179;52.106;21.024;2023-02-28T00:49:04;101984.91;;;-4.50;57.17
22031;BME280;11179;52.106;21.024;2023-02-28T00:51:29;101987.03;;;-4.54;57.26
22031;BME280;11179;52.106;21.024;2023-02-28T00:53:54;101978.47;;;-4.59;57.20
22031;BME280;11179;52.106;21.024;2023-02-28T00:56:20;101983.84;;;-4.59;57.29
22031;BME280;11179;52.106;21.024;2023-02-28T00:58:45;101977.97;;;-4.64;57.29
22031;BME280;11179;52.106;21.024;2023-02-28T01:01:10;101973.69;;;-4.66;57.50
22031;BME280;11179;52.106;21.024;2023-02-28T01:03:36;101974.81;;;-4.69;57.56
22031;BME280;11179;52.106;21.024;2023-02-28T01:06:01;101980.28;;;-4.70;57.49
22031;BME280;11179;52.106;21.024;2023-02-28T01:08:27;101980.03;;;-4.78;57.62
22031;BME280;11179;52.106;21.024;2023-02-28T01:10:52;101982.84;;;-4.80;57.83
22031;BME280;11179;52.106;21.024;2023-02-28T01:13:18;101986.59;;;-4.82;57.88
22031;BME280;11179;52.106;21.024;2023-02-28T01:15:55;101983.06;;;-4.83;57.98
22031;BME280;11179;52.106;21.024;2023-02-28T01:18:21;101972.72;;;-4.88;57.85
22031;BME280;11179;52.106;21.024;2023-02-28T01:20:47;101978.19;;;-4.89;57.86
22031;BME280;11179;52.106;21.024;2023-02-28T01:23:12;101976.84;;;-4.95;57.88
22031;BME280;11179;52.106;21.024;2023-02-28T01:25:38;101976.22;;;-4.98;57.97
22031;BME280;11179;52.106;21.024;2023-02-28T01:28:03;101975.72;;;-5.03;57.90
22031;BME280;11179;52.106;21.024;2023-02-28T01:30:29;101978.66;;;-5.06;57.97
22031;BME280;11179;52.106;21.024;2023-02-28T01:32:55;101982.41;;;-5.09;57.97
22031;BME280;11179;52.106;21.024;2023-02-28T01:35:20;101975.56;;;-5.13;58.13
22031;BME280;11179;52.106;21.024;2023-02-28T01:37:45;101986.41;;;-5.14;58.13
22031;BME280;11179;52.106;21.024;2023-02-28T01:40:11;101980.31;;;-5.16;58.40
22031;BME280;11179;52.106;21.024;2023-02-28T01:42:37;101974.34;;;-5.20;58.46
22031;BME280;11179;52.106;21.024;2023-02-28T01:47:32;101984.22;;;-5.20;58.61
22031;BME280;11179;52.106;21.024;2023-02-28T01:49:59;101975.66;;;-5.26;58.63
22031;BME280;11179;52.106;21.024;2023-02-28T01:52:26;101990.00;;;-5.27;58.62
22031;BME280;11179;52.106;21.024;2023-02-28T01:54:55;101982.19;;;-5.30;58.82
22031;BME280;11179;52.106;21.024;2023-02-28T01:57:37;101982.31;;;-5.31;58.81
22031;BME280;11179;52.106;21.024;2023-02-28T02:00:07;101984.28;;;-5.33;58.83
22031;BME280;11179;52.106;21.024;2023-02-28T02:02:34;101981.94;;;-5.38;58.98
22031;BME280;11179;52.106;21.024;2023-02-28T02:05:14;101980.88;;;-5.35;59.07
22031;BME280;11179;52.106;21.024;2023-02-28T02:07:43;101980.13;;;-5.37;59.06
22031;BME280;11179;52.106;21.024;2023-02-28T02:15:26;101984.31;;;-5.46;59.11
22031;BME280;11179;52.106;21.024;2023-02-28T02:17:57;101973.88;;;-5.49;59.07
22031;BME280;11179;52.106;21.024;2023-02-28T02:21:00;101977.50;;;-5.50;59.20
22031;BME280;11179;52.106;21.024;2023-02-28T02:39:50;101985.56;;;-5.74;59.38
22031;BME280;11179;52.106;21.024;2023-02-28T02:42:27;102002.91;;;-5.79;59.60
22031;BME280;11179;52.106;21.024;2023-02-28T02:45:01;101995.84;;;-5.80;59.90
22031;BME280;11179;52.106;21.024;2023-02-28T02:47:30;101986.09;;;-5.81;59.89
22031;BME280;11179;52.106;21.024;2023-02-28T02:49:58;101988.78;;;-5.81;60.00
22031;BME280;11179;52.106;21.024;2023-02-28T02:52:33;101997.78;;;-5.82;60.05
22031;BME280;11179;52.106;21.024;2023-02-28T02:55:00;101994.34;;;-5.84;60.02
22031;BME280;11179;52.106;21.024;2023-02-28T02:57:37;101992.78;;;-5.87;60.22
22031;BME280;11179;52.106;21.024;2023-02-28T03:00:06;101994.72;;;-5.89;60.15
22031;BME280;11179;52.106;21.024;2023-02-28T03:02:35;101998.22;;;-5.88;60.05
22031;BME280;11179;52.106;21.024;2023-02-28T03:06:07;101994.81;;;-5.90;60.21
22031;BME280;11179;52.106;21.024;2023-02-28T03:08:05;102001.13;;;-5.91;60.16
22031;BME280;11179;52.106;21.024;2023-02-28T03:10:45;102000.38;;;-5.93;60.25
22031;BME280;11179;52.106;21.024;2023-02-28T03:19:26;102005.19;;;-5.99;60.26
22031;BME280;11179;52.106;21.024;2023-02-28T03:22:33;101998.38;;;-6.03;60.26
22031;BME280;11179;52.106;21.024;2023-02-28T03:25:09;101997.63;;;-6.05;60.30
22031;BME280;11179;52.106;21.024;2023-02-28T03:27:54;102010.16;;;-6.05;60.61
22031;BME280;11179;52.106;21.024;2023-02-28T03:30:39;101997.09;;;-6.10;60.76
22031;BME280;11179;52.106;21.024;2023-02-28T03:33:11;102002.34;;;-6.08;60.66
22031;BME280;11179;52.106;21.024;2023-02-28T03:35:41;101999.78;;;-6.10;60.88
22031;BME280;11179;52.106;21.024;2023-02-28T03:38:26;102013.16;;;-6.10;60.90
22031;BME280;11179;52.106;21.024;2023-02-28T03:41:21;102013.38;;;-6.13;60.97
22031;BME280;11179;52.106;21.024;2023-02-28T03:43:55;102007.28;;;-6.15;61.06
22031;BME280;11179;52.106;21.024;2023-02-28T03:46:24;102010.94;;;-6.16;61.07
22031;BME280;11179;52.106;21.024;2023-02-28T03:51:27;102016.28;;;-6.16;61.19
22031;BME280;11179;52.106;21.024;2023-02-28T03:53:57;102004.09;;;-6.20;61.23
22031;BME280;11179;52.106;21.024;2023-02-28T03:56:48;102014.56;;;-6.17;61.41
22031;BME280;11179;52.106;21.024;2023-02-28T03:59:53;102018.31;;;-6.19;61.58
22031;BME280;11179;52.106;21.024;2023-02-28T04:02:19;102021.94;;;-6.20;61.39
22031;BME280;11179;52.106;21.024;2023-02-28T04:04:45;102015.84;;;-6.22;61.55
22031;BME280;11179;52.106;21.024;2023-02-28T04:07:13;102014.03;;;-6.22;61.72
22031;BME280;11179;52.106;21.024;2023-02-28T04:09:39;102019.38;;;-6.22;61.87
22031;BME280;11179;52.106;21.024;2023-02-28T04:12:04;102011.34;;;-6.22;61.91
22031;BME280;11179;52.106;21.024;2023-02-28T04:14:30;102012.22;;;-6.21;61.85
22031;BME280;11179;52.106;21.024;2023-02-28T04:16:55;102010.50;;;-6.22;61.98
22031;BME280;11179;52.106;21.024;2023-02-28T04:19:20;102014.88;;;-6.21;61.99
22031;BME280;11179;52.106;21.024;2023-02-28T04:21:48;102013.16;;;-6.22;61.92
22031;BME280;11179;52.106;21.024;2023-02-28T04:24:16;102011.47;;;-6.23;61.93
22031;BME280;11179;52.106;21.024;2023-02-28T04:26:44;102012.53;;;-6.26;61.80
22031;BME280;11179;52.106;21.024;2023-02-28T04:29:12;102016.19;;;-6.27;61.85
22031;BME280;11179;52.106;21.024;2023-02-28T04:31:38;102020.78;;;-6.29;61.98
22031;BME280;11179;52.106;21.024;2023-02-28T04:34:04;102023.47;;;-6.29;61.95
22031;BME280;11179;52.106;21.024;2023-02-28T04:36:29;102020.78;;;-6.29;61.83
22031;BME280;11179;52.106;21.024;2023-02-28T04:38:55;102028.06;;;-6.31;62.18
22031;BME280;11179;52.106;21.024;2023-02-28T04:41:20;102024.63;;;-6.33;62.11
22031;BME280;11179;52.106;21.024;2023-02-28T04:43:46;102033.41;;;-6.31;62.09
22031;BME280;11179;52.106;21.024;2023-02-28T04:46:12;102026.44;;;-6.34;62.10
22031;BME280;11179;52.106;21.024;2023-02-28T04:48:38;102024.84;;;-6.36;62.20
22031;BME280;11179;52.106;21.024;2023-02-28T04:51:07;102026.66;;;-6.37;62.18
22031;BME280;11179;52.106;21.024;2023-02-28T04:53:33;102029.22;;;-6.35;62.13
22031;BME280;11179;52.106;21.024;2023-02-28T04:56:00;102026.56;;;-6.35;62.15
22031;BME280;11179;52.106;21.024;2023-02-28T04:58:26;102030.19;;;-6.36;62.20
22031;BME280;11179;52.106;21.024;2023-02-28T05:00:52;102027.50;;;-6.36;62.33
22031;BME280;11179;52.106;21.024;2023-02-28T05:03:17;102035.53;;;-6.36;62.41
22031;BME280;11179;52.106;21.024;2023-02-28T05:05:43;102028.47;;;-6.37;62.39
22031;BME280;11179;52.106;21.024;2023-02-28T05:08:08;102042.81;;;-6.38;62.32
22031;BME280;11179;52.106;21.024;2023-02-28T05:10:34;102036.75;;;-6.40;62.36
22031;BME280;11179;52.106;21.024;2023-02-28T05:13:00;102038.56;;;-6.41;62.32
22031;BME280;11179;52.106;21.024;2023-02-28T05:15:25;102034.91;;;-6.40;62.60
22031;BME280;11179;52.106;21.024;2023-02-28T05:17:50;102039.41;;;-6.40;62.71
22031;BME280;11179;52.106;21.024;2023-02-28T05:20:16;102042.09;;;-6.40;62.72
22031;BME280;11179;52.106;21.024;2023-02-28T05:22:43;102041.34;;;-6.42;62.70
22031;BME280;11179;52.106;21.024;2023-02-28T05:25:12;102051.06;;;-6.41;62.72
22031;BME280;11179;52.106;21.024;2023-02-28T05:27:38;102053.84;;;-6.43;62.66
22031;BME280;11179;52.106;21.024;2023-02-28T05:30:05;102048.28;;;-6.40;62.73
22031;BME280;11179;52.106;21.024;2023-02-28T05:32:31;102050.09;;;-6.40;62.75
22031;BME280;11179;52.106;21.024;2023-02-28T05:34:56;102056.06;;;-6.37;62.85
22031;BME280;11179;52.106;21.024;2023-02-28T05:37:21;102055.84;;;-6.34;62.84
22031;BME280;11179;52.106;21.024;2023-02-28T05:39:47;102056.59;;;-6.32;62.82
22031;BME280;11179;52.106;21.024;2023-02-28T05:42:13;102057.25;;;-6.28;62.88
22031;BME280;11179;52.106;21.024;2023-02-28T05:44:38;102068.56;;;-6.24;62.95
22031;BME280;11179;52.106;21.024;2023-02-28T05:47:03;102074.34;;;-6.18;62.92
22031;BME280;11179;52.106;21.024;2023-02-28T05:49:29;102076.81;;;-6.15;63.03
22031;BME280;11179;52.106;21.024;2023-02-28T05:51:54;102070.38;;;-6.12;63.14
22031;BME280;11179;52.106;21.024;2023-02-28T05:54:19;102070.81;;;-6.06;62.98
22031;BME280;11179;52.106;21.024;2023-02-28T05:56:45;102074.00;;;-6.01;63.31
22031;BME280;11179;52.106;21.024;2023-02-28T05:59:12;102078.69;;;-5.91;63.10
22031;BME280;11179;52.106;21.024;2023-02-28T06:01:43;102077.16;;;-5.83;63.37
22031;BME280;11179;52.106;21.024;2023-02-28T06:04:16;102075.78;;;-5.76;63.13
22031;BME280;11179;52.106;21.024;2023-02-28T06:06:49;102082.69;;;-5.61;63.25
22031;BME280;11179;52.106;21.024;2023-02-28T06:09:15;102083.25;;;-5.44;62.95
22031;BME280;11179;52.106;21.024;2023-02-28T06:11:41;102085.44;;;-5.26;63.38
22031;BME280;11179;52.106;21.024;2023-02-28T06:14:06;102084.88;;;-4.94;63.43
22031;BME280;11179;52.106;21.024;2023-02-28T06:16:34;102079.63;;;-4.49;63.33
22031;BME280;11179;52.106;21.024;2023-02-28T06:19:02;102077.00;;;-4.05;62.99
22031;BME280;11179;52.106;21.024;2023-02-28T06:21:28;102083.03;;;-3.58;62.53
22031;BME280;11179;52.106;21.024;2023-02-28T06:23:55;102084.16;;;-3.18;62.09
22031;BME280;11179;52.106;21.024;2023-02-28T06:26:20;102076.47;;;-2.90;61.75
22031;BME280;11179;52.106;21.024;2023-02-28T06:28:46;102082.22;;;-2.63;61.36
22031;BME280;11179;52.106;21.024;2023-02-28T06:31:14;102073.94;;;-2.29;61.04
22031;BME280;11179;52.106;21.024;2023-02-28T06:33:41;102080.78;;;-1.85;60.67
22031;BME280;11179;52.106;21.024;2023-02-28T06:36:08;102070.84;;;-1.45;60.43
22031;BME280;11179;52.106;21.024;2023-02-28T06:38:33;102072.19;;;-1.01;59.92
22031;BME280;11179;52.106;21.024;2023-02-28T06:41:00;102076.44;;;-0.60;59.33
22031;BME280;11179;52.106;21.024;2023-02-28T06:43:29;102067.25;;;-0.20;58.90
22031;BME280;11179;52.106;21.024;2023-02-28T06:45:57;102062.63;;;0.09;58.10
22031;BME280;11179;52.106;21.024;2023-02-28T06:48:23;102056.91;;;0.40;57.24
22031;BME280;11179;52.106;21.024;2023-02-28T06:50:49;102063.25;;;0.76;56.76
22031;BME280;11179;52.106;21.024;2023-02-28T06:53:15;102066.03;;;1.02;56.01
22031;BME280;11179;52.106;21.024;2023-02-28T06:55:41;102048.75;;;1.38;55.58
22031;BME280;11179;52.106;21.024;2023-02-28T06:58:07;102057.47;;;1.76;54.92
22031;BME280;11179;52.106;21.024;2023-02-28T07:00:44;102059.22;;;2.11;54.04
22031;BME280;11179;52.106;21.024;2023-02-28T07:03:11;102052.53;;;2.31;53.23
22031;BME280;11179;52.106;21.024;2023-02-28T07:05:37;102040.50;;;2.34;52.63
22031;BME280;11179;52.106;21.024;2023-02-28T07:08:03;102046.00;;;2.58;52.20
22031;BME280;11179;52.106;21.024;2023-02-28T07:10:29;102038.13;;;2.89;51.84
22031;BME280;11179;52.106;21.024;2023-02-28T07:12:55;102034.59;;;3.05;51.12
22031;BME280;11179;52.106;21.024;2023-02-28T07:15:20;102043.56;;;3.05;50.02
22031;BME280;11179;52.106;21.024;2023-02-28T07:17:45;102038.13;;;3.21;50.38
22031;BME280;11179;52.106;21.024;2023-02-28T07:20:11;102037.63;;;3.50;49.83
22031;BME280;11179;52.106;21.024;2023-02-28T07:22:37;102046.44;;;3.68;49.18
22031;BME280;11179;52.106;21.024;2023-02-28T07:25:04;102041.47;;;3.96;48.65
22031;BME280;11179;52.106;21.024;2023-02-28T07:27:30;102053.13;;;4.13;48.14
22031;BME280;11179;52.106;21.024;2023-02-28T07:29:55;102058.84;;;4.26;47.63
22031;BME280;11179;52.106;21.024;2023-02-28T07:32:20;102052.63;;;4.18;47.21
22031;BME280;11179;52.106;21.024;2023-02-28T07:34:46;102058.50;;;4.37;46.53
22031;BME280;11179;52.106;21.024;2023-02-28T07:37:11;102045.56;;;4.70;46.45
22031;BME280;11179;52.106;21.024;2023-02-28T07:39:36;102056.34;;;4.87;45.76
22031;BME280;11179;52.106;21.024;2023-02-28T07:42:06;102043.00;;;5.00;45.43
22031;BME280;11179;52.106;21.024;2023-02-28T07:44:31;102051.59;;;5.11;44.95
22031;BME280;11179;52.106;21.024;2023-02-28T07:46:57;102045.47;;;5.09;44.79
22031;BME280;11179;52.106;21.024;2023-02-28T07:49:23;102046.75;;;5.22;43.97
22031;BME280;11179;52.106;21.024;2023-02-28T07:51:48;102036.25;;;5.33;43.38
22031;BME280;11179;52.106;21.024;2023-02-28T07:54:13;102040.97;;;5.39;42.83
22031;BME280;11179;52.106;21.024;2023-02-28T07:56:39;102037.78;;;5.36;42.70
22031;BME280;11179;52.106;21.024;2023-02-28T07:59:04;102040.28;;;5.60;42.45
22031;BME280;11179;52.106;21.024;2023-02-28T08:01:29;102043.13;;;5.67;42.18
22031;BME280;11179;52.106;21.024;2023-02-28T08:03:55;102038.06;;;5.78;41.72
22031;BME280;11179;52.106;21.024;2023-02-28T08:06:23;102044.72;;;5.91;41.51
22031;BME280;11179;52.106;21.024;2023-02-28T08:08:49;102046.25;;;6.08;41.04
22031;BME280;11179;52.106;21.024;2023-02-28T08:11:15;102044.38;;;6.23;40.46
22031;BME280;11179;52.106;21.024;2023-02-28T08:13:41;102037.63;;;6.34;40.32
22031;BME280;11179;52.106;21.024;2023-02-28T08:16:09;102044.94;;;6.48;39.75
22031;BME280;11179;52.106;21.024;2023-02-28T08:18:34;102044.16;;;6.54;39.60
22031;BME280;11179;52.106;21.024;2023-02-28T08:21:06;102043.03;;;6.63;39.26
22031;BME280;11179;52.106;21.024;2023-02-28T08:23:31;102025.22;;;6.67;39.24
22031;BME280;11179;52.106;21.024;2023-02-28T08:25:58;102045.16;;;6.32;38.17
22031;BME280;11179;52.106;21.024;2023-02-28T08:28:24;102041.16;;;6.05;38.06
22031;BME280;11179;52.106;21.024;2023-02-28T08:30:49;102035.16;;;6.09;38.25
22031;BME280;11179;52.106;21.024;2023-02-28T08:33:15;102030.63;;;5.87;37.73
22031;BME280;11179;52.106;21.024;2023-02-28T08:35:40;102033.69;;;5.55;37.05
22031;BME280;11179;52.106;21.024;2023-02-28T08:38:05;102031.91;;;5.62;38.06
22031;BME280;11179;52.106;21.024;2023-02-28T08:40:31;102032.06;;;5.98;37.87
22031;BME280;11179;52.106;21.024;2023-02-28T08:42:56;102028.09;;;6.30;37.69
22031;BME280;11179;52.106;21.024;2023-02-28T08:45:21;102018.22;;;6.43;37.08
22031;BME280;11179;52.106;21.024;2023-02-28T08:47:46;102032.50;;;6.60;37.10
22031;BME280;11179;52.106;21.024;2023-02-28T08:50:12;102033.34;;;6.61;36.94
22031;BME280;11179;52.106;21.024;2023-02-28T08:52:42;102025.81;;;6.63;36.47
22031;BME280;11179;52.106;21.024;2023-02-28T08:55:07;102037.81;;;6.68;36.41
22031;BME280;11179;52.106;21.024;2023-02-28T08:57:34;102027.84;;;6.75;36.54
22031;BME280;11179;52.106;21.024;2023-02-28T09:00:00;102036.03;;;6.75;36.21
22031;BME280;11179;52.106;21.024;2023-02-28T09:02:29;102031.44;;;6.76;36.38
22031;BME280;11179;52.106;21.024;2023-02-28T09:04:55;102035.09;;;6.68;36.22
22031;BME280;11179;52.106;21.024;2023-02-28T09:07:20;102036.66;;;6.41;36.38
22031;BME280;11179;52.106;21.024;2023-02-28T09:09:45;102045.13;;;6.17;36.39
22031;BME280;11179;52.106;21.024;2023-02-28T09:12:25;102044.88;;;5.60;36.50
22031;BME280;11179;52.106;21.024;2023-02-28T09:14:51;102043.94;;;5.53;36.31
22031;BME280;11179;52.106;21.024;2023-02-28T09:17:18;102051.13;;;5.83;36.38
22031;BME280;11179;52.106;21.024;2023-02-28T09:19:43;102042.13;;;5.97;35.93
22031;BME280;11179;52.106;21.024;2023-02-28T09:22:09;102042.75;;;6.14;35.80
22031;BME280;11179;52.106;21.024;2023-02-28T09:24:39;102044.19;;;6.25;35.73
22031;BME280;11179;52.106;21.024;2023-02-28T09:27:04;102042.22;;;6.18;35.69
22031;BME280;11179;52.106;21.024;2023-02-28T09:29:31;102040.41;;;6.40;35.47
22031;BME280;11179;52.106;21.024;2023-02-28T09:31:56;102053.31;;;6.46;35.33
22031;BME280;11179;52.106;21.024;2023-02-28T09:34:24;102042.31;;;6.40;35.25
22031;BME280;11179;52.106;21.024;2023-02-28T09:36:49;102042.22;;;6.33;35.03
22031;BME280;11179;52.106;21.024;2023-02-28T09:39:20;102053.22;;;6.40;35.45
22031;BME280;11179;52.106;21.024;2023-02-28T09:41:48;102047.56;;;6.41;34.90
22031;BME280;11179;52.106;21.024;2023-02-28T09:44:37;102061.19;;;6.56;34.96
22031;BME280;11179;52.106;21.024;2023-02-28T09:49:43;102057.06;;;6.60;35.25
22031;BME280;11179;52.106;21.024;2023-02-28T09:52:16;102051.19;;;6.78;35.09
22031;BME280;11179;52.106;21.024;2023-02-28T09:54:42;102053.13;;;6.63;34.66
22031;BME280;11179;52.106;21.024;2023-02-28T09:57:31;102054.34;;;6.60;34.64
22031;BME280;11179;52.106;21.024;2023-02-28T10:00:31;102058.75;;;6.61;34.93
22031;BME280;11179;52.106;21.024;2023-02-28T10:03:22;102050.56;;;6.61;34.66
22031;BME280;11179;52.106;21.024;2023-02-28T10:05:54;102050.66;;;6.53;34.90
22031;BME280;11179;52.106;21.024;2023-02-28T10:08:30;102040.81;;;6.22;35.36
22031;BME280;11179;52.106;21.024;2023-02-28T10:11:01;102045.97;;;6.03;35.58
22031;BME280;11179;52.106;21.024;2023-02-28T10:14:02;102046.97;;;5.72;35.33
22031;BME280;11179;52.106;21.024;2023-02-28T10:16:46;102042.50;;;5.42;35.36
22031;BME280;11179;52.106;21.024;2023-02-28T10:19:38;102057.03;;;5.11;35.89
22031;BME280;11179;52.106;21.024;2023-02-28T10:22:12;102055.22;;;5.04;35.92
22031;BME280;11179;52.106;21.024;2023-02-28T10:24:47;102052.38;;;5.20;36.33
22031;BME280;11179;52.106;21.024;2023-02-28T10:27:17;102047.16;;;5.33;36.11
22031;BME280;11179;52.106;21.024;2023-02-28T10:29:45;102052.53;;;5.41;35.93
22031;BME280;11179;52.106;21.024;2023-02-28T10:32:15;102056.22;;;5.48;36.02
22031;BME280;11179;52.106;21.024;2023-02-28T10:34:41;102048.66;;;5.59;35.81
22031;BME280;11179;52.106;21.024;2023-02-28T10:37:07;102054.47;;;5.56;35.69
22031;BME280;11179;52.106;21.024;2023-02-28T10:39:45;102048.44;;;5.45;35.89
22031;BME280;11179;52.106;21.024;2023-02-28T10:42:37;102054.06;;;5.44;35.91
22031;BME280;11179;52.106;21.024;2023-02-28T10:45:10;102052.91;;;5.38;35.91
22031;BME280;11179;52.106;21.024;2023-02-28T10:47:51;102048.91;;;5.26;36.08
22031;BME280;11179;52.106;21.024;2023-02-28T10:50:39;102048.91;;;5.26;36.46
22031;BME280;11179;52.106;21.024;2023-02-28T10:55:35;102052.44;;;5.12;36.32
22031;BME280;11179;52.106;21.024;2023-02-28T10:58:00;102049.53;;;4.91;36.68
22031;BME280;11179;52.106;21.024;2023-02-28T11:00:32;102046.31;;;4.87;36.59
22031;BME280;11179;52.106;21.024;2023-02-28T11:02:58;102043.09;;;4.84;36.67
22031;BME280;11179;52.106;21.024;2023-02-28T11:05:25;102035.78;;;4.84;36.79
22031;BME280;11179;52.106;21.024;2023-02-28T11:07:56;102030.50;;;4.83;36.72
22031;BME280;11179;52.106;21.024;2023-02-28T11:10:26;102041.53;;;4.89;36.74
22031;BME280;11179;52.106;21.024;2023-02-28T11:12:55;102039.19;;;4.86;36.42
22031;BME280;11179;52.106;21.024;2023-02-28T11:15:30;102035.50;;;4.79;36.66
22031;BME280;11179;52.106;21.024;2023-02-28T11:17:59;102028.03;;;4.73;36.48
22031;BME280;11179;52.106;21.024;2023-02-28T11:20:28;102034.91;;;4.61;36.60
22031;BME280;11179;52.106;21.024;2023-02-28T11:22:56;102026.59;;;4.54;36.90
22031;BME280;11179;52.106;21.024;2023-02-28T11:25:34;102017.81;;;4.52;37.15
22031;BME280;11179;52.106;21.024;2023-02-28T11:28:02;102018.75;;;4.59;37.11
22031;BME280;11179;52.106;21.024;2023-02-28T11:30:40;102014.22;;;4.52;37.10
22031;BME280;11179;52.106;21.024;2023-02-28T11:33:52;102008.91;;;4.58;37.18
22031;BME280;11179;52.106;21.024;2023-02-28T11:36:23;102008.56;;;4.61;37.37
22031;BME280;11179;52.106;21.024;2023-02-28T11:38:54;102000.03;;;4.64;37.11
22031;BME280;11179;52.106;21.024;2023-02-28T11:49:30;101981.63;;;4.66;37.22
22031;BME280;11179;52.106;21.024;2023-02-28T11:54:59;101963.25;;;4.46;37.14
22031;BME280;11179;52.106;21.024;2023-02-28T11:57:53;101968.50;;;4.47;37.45
22031;BME280;11179;52.106;21.024;2023-02-28T12:00:37;101954.19;;;4.53;37.06
22031;BME280;11179;52.106;21.024;2023-02-28T12:08:49;101953.16;;;4.54;36.90
22031;BME280;11179;52.106;21.024;2023-02-28T12:11:35;101952.00;;;4.49;37.57
22031;BME280;11179;52.106;21.024;2023-02-28T12:19:42;101946.06;;;4.45;37.13
22031;BME280;11179;52.106;21.024;2023-02-28T12:22:13;101945.22;;;4.44;37.40
22031;BME280;11179;52.106;21.024;2023-02-28T12:25:01;101944.97;;;4.31;37.59
22031;BME280;11179;52.106;21.024;2023-02-28T12:27:40;101952.47;;;4.29;37.71
22031;BME280;11179;52.106;21.024;2023-02-28T12:30:21;101950.09;;;4.26;37.53
22031;BME280;11179;52.106;21.024;2023-02-28T12:32:53;101942.13;;;4.25;37.59
22031;BME280;11179;52.106;21.024;2023-02-28T12:35:27;101937.22;;;4.20;37.64
22031;BME280;11179;52.106;21.024;2023-02-28T12:38:14;101927.63;;;4.01;37.51
22031;BME280;11179;52.106;21.024;2023-02-28T12:40:48;101931.41;;;3.92;37.56
22031;BME280;11179;52.106;21.024;2023-02-28T12:43:18;101924.63;;;3.96;37.69
22031;BME280;11179;52.106;21.024;2023-02-28T12:45:54;101927.16;;;3.98;37.76
22031;BME280;11179;52.106;21.024;2023-02-28T12:48:29;101927.63;;;4.01;37.95
22031;BME280;11179;52.106;21.024;2023-02-28T12:50:57;101919.44;;;4.10;37.92
22031;BME280;11179;52.106;21.024;2023-02-28T12:53:35;101919.13;;;4.04;38.04
22031;BME280;11179;52.106;21.024;2023-02-28T12:56:22;101916.56;;;4.11;38.15
22031;BME280;11179;52.106;21.024;2023-02-28T12:58:58;101910.47;;;4.01;37.79
22031;BME280;11179;52.106;21.024;2023-02-28T13:04:29;101909.88;;;4.14;38.03
22031;BME280;11179;52.106;21.024;2023-02-28T13:10:04;101906.47;;;4.20;38.26
22031;BME280;11179;52.106;21.024;2023-02-28T13:12:31;101893.97;;;4.11;38.48
22031;BME280;11179;52.106;21.024;2023-02-28T13:15:32;101905.69;;;4.11;38.37
22031;BME280;11179;52.106;21.024;2023-02-28T13:18:03;101906.56;;;4.03;38.66
22031;BME280;11179;52.106;21.024;2023-02-28T13:20:33;101901.16;;;3.95;38.57
22031;BME280;11179;52.106;21.024;2023-02-28T13:22:59;101903.56;;;3.90;38.35
22031;BME280;11179;52.106;21.024;2023-02-28T13:28:11;101904.94;;;3.78;38.44
22031;BME280;11179;52.106;21.024;2023-02-28T13:33:36;101888.31;;;3.81;38.62
22031;BME280;11179;52.106;21.024;2023-02-28T13:36:30;101898.16;;;3.82;38.78
22031;BME280;11179;52.106;21.024;2023-02-28T13:38:57;101895.09;;;3.85;39.17
22031;BME280;11179;52.106;21.024;2023-02-28T13:51:49;101875.97;;;3.70;39.49
22031;BME280;11179;52.106;21.024;2023-02-28T13:54:44;101869.53;;;3.63;39.83
22031;BME280;11179;52.106;21.024;2023-02-28T13:57:41;101877.84;;;3.62;39.52
22031;BME280;11179;52.106;21.024;2023-02-28T14:05:21;101863.78;;;3.58;39.82
22031;BME280;11179;52.106;21.024;2023-02-28T14:07:53;101850.56;;;3.55;39.53
22031;BME280;11179;52.106;21.024;2023-02-28T14:10:24;101850.91;;;3.52;39.69
22031;BME280;11179;52.106;21.024;2023-02-28T14:12:52;101851.78;;;3.45;40.06
22031;BME280;11179;52.106;21.024;2023-02-28T14:15:41;101849.25;;;3.43;39.83
22031;BME280;11179;52.106;21.024;2023-02-28T14:18:19;101849.41;;;3.42;40.06
22031;BME280;11179;52.106;21.024;2023-02-28T14:20:47;101845.00;;;3.41;39.92
22031;BME280;11179;52.106;21.024;2023-02-28T14:26:32;101833.81;;;3.35;39.92
22031;BME280;11179;52.106;21.024;2023-02-28T14:31:57;101840.97;;;3.28;40.14
22031;BME280;11179;52.106;21.024;2023-02-28T14:37:16;101837.75;;;3.25;40.51